Fort Wayne (FWA/KFWA)

Map

Destinations

Information

Location
Fort Wayne, IN
Local Time
20:10 / 8:10 pm
GMT Time
00:10 / 12:10 am
Gates
Unassigned
No FAA reported delays
METAR KFWA 222354Z 07008KT 10SM BKN250 01/M09 A3050 RMK AO2 SLP337 T00061094 10033 20006 $
TAF KFWA 222335Z 2300/2324 09005KT P6SM SCT250 FM231500 13010KT P6SM SCT150 BKN250 FM232000 15010KT P6SM BKN100
  • No charts available